<?xml version="1.0" encoding="UTF-8" standalone="no" ?>
<gpx xmlns="http://www.topografix.com/GPX/1/1" xmlns:xsi="http://www.w3.org/2001/XMLSchema-instance" xsi:schemaLocation="http://www.topografix.com/GPX/1/1 http://www.topografix.com/GPX/1/1/gpx.xsd" version="1.1" creator="VisuGPX - https://www.visugpx.com">
  <metadata>
    <name>VacancesDricouZoe</name>
  </metadata>
  <trk>
    <name><![CDATA[Journal actif: 2021-07-01 18:05]]></name>
    <trkseg>
      <trkpt lat="44.62093" lon="-1.20189">
        <ele>-5.63</ele>
        <time>2021-07-01T20:05:24Z</time>
      </trkpt>
      <trkpt lat="44.6201" lon="-1.20164">
        <ele>-4.19</ele>
        <time>2021-07-01T20:05:37Z</time>
      </trkpt>
      <trkpt lat="44.61863" lon="-1.20162">
        <ele>-3.71</ele>
        <time>2021-07-01T20:05:55Z</time>
      </trkpt>
      <trkpt lat="44.61752" lon="-1.20154">
        <ele>0.62</ele>
        <time>2021-07-01T20:06:09Z</time>
      </trkpt>
      <trkpt lat="44.61638" lon="-1.20164">
        <ele>5.42</ele>
        <time>2021-07-01T20:06:23Z</time>
      </trkpt>
      <trkpt lat="44.61529" lon="-1.20184">
        <ele>8.31</ele>
        <time>2021-07-01T20:06:35Z</time>
      </trkpt>
      <trkpt lat="44.6137" lon="-1.20212">
        <ele>7.83</ele>
        <time>2021-07-01T20:06:52Z</time>
      </trkpt>
      <trkpt lat="44.61292" lon="-1.20225">
        <ele>6.87</ele>
        <time>2021-07-01T20:07:03Z</time>
      </trkpt>
      <trkpt lat="44.61279" lon="-1.20228">
        <ele>6.87</ele>
        <time>2021-07-01T20:07:05Z</time>
      </trkpt>
      <trkpt lat="44.61242" lon="-1.20242">
        <ele>5.91</ele>
        <time>2021-07-01T20:07:13Z</time>
      </trkpt>
      <trkpt lat="44.61194" lon="-1.20267">
        <ele>6.39</ele>
        <time>2021-07-01T20:07:23Z</time>
      </trkpt>
      <trkpt lat="44.61188" lon="-1.2027">
        <ele>6.39</ele>
        <time>2021-07-01T20:07:24Z</time>
      </trkpt>
      <trkpt lat="44.61181" lon="-1.20275">
        <ele>7.35</ele>
        <time>2021-07-01T20:07:25Z</time>
      </trkpt>
      <trkpt lat="44.61176" lon="-1.20281">
        <ele>7.83</ele>
        <time>2021-07-01T20:07:26Z</time>
      </trkpt>
      <trkpt lat="44.61171" lon="-1.20287">
        <ele>7.35</ele>
        <time>2021-07-01T20:07:27Z</time>
      </trkpt>
      <trkpt lat="44.61166" lon="-1.20294">
        <ele>6.87</ele>
        <time>2021-07-01T20:07:28Z</time>
      </trkpt>
      <trkpt lat="44.61096" lon="-1.20415">
        <ele>7.83</ele>
        <time>2021-07-01T20:07:42Z</time>
      </trkpt>
      <trkpt lat="44.61042" lon="-1.20473">
        <ele>9.27</ele>
        <time>2021-07-01T20:07:51Z</time>
      </trkpt>
      <trkpt lat="44.61026" lon="-1.20483">
        <ele>9.27</ele>
        <time>2021-07-01T20:07:52Z</time>
      </trkpt>
      <trkpt lat="44.60911" lon="-1.20522">
        <ele>5.42</ele>
        <time>2021-07-01T20:08:05Z</time>
      </trkpt>
      <trkpt lat="44.60802" lon="-1.20572">
        <ele>5.42</ele>
        <time>2021-07-01T20:08:18Z</time>
      </trkpt>
      <trkpt lat="44.60771" lon="-1.20591">
        <ele>3.98</ele>
        <time>2021-07-01T20:08:26Z</time>
      </trkpt>
      <trkpt lat="44.60768" lon="-1.20596">
        <ele>3.98</ele>
        <time>2021-07-01T20:08:27Z</time>
      </trkpt>
      <trkpt lat="44.60764" lon="-1.20596">
        <ele>3.98</ele>
        <time>2021-07-01T20:08:28Z</time>
      </trkpt>
      <trkpt lat="44.6076" lon="-1.20596">
        <ele>3.5</ele>
        <time>2021-07-01T20:08:29Z</time>
      </trkpt>
      <trkpt lat="44.60759" lon="-1.20592">
        <ele>3.5</ele>
        <time>2021-07-01T20:08:30Z</time>
      </trkpt>
      <trkpt lat="44.60757" lon="-1.20587">
        <ele>3.02</ele>
        <time>2021-07-01T20:08:31Z</time>
      </trkpt>
      <trkpt lat="44.60757" lon="-1.20582">
        <ele>3.02</ele>
        <time>2021-07-01T20:08:32Z</time>
      </trkpt>
      <trkpt lat="44.6076" lon="-1.20492">
        <ele>0.62</ele>
        <time>2021-07-01T20:08:43Z</time>
      </trkpt>
      <trkpt lat="44.60759" lon="-1.20471">
        <ele>0.62</ele>
        <time>2021-07-01T20:08:44Z</time>
      </trkpt>
      <trkpt lat="44.60746" lon="-1.20396">
        <ele>-1.3</ele>
        <time>2021-07-01T20:08:51Z</time>
      </trkpt>
      <trkpt lat="44.60739" lon="-1.20371">
        <ele>-1.79</ele>
        <time>2021-07-01T20:08:52Z</time>
      </trkpt>
      <trkpt lat="44.60739" lon="-1.20371">
        <ele>-1.79</ele>
        <time>2021-07-01T20:08:53Z</time>
      </trkpt>
      <trkpt lat="44.60734" lon="-1.2036">
        <ele>-3.23</ele>
        <time>2021-07-01T20:08:54Z</time>
      </trkpt>
      <trkpt lat="44.60725" lon="-1.20349">
        <ele>-3.71</ele>
        <time>2021-07-01T20:08:55Z</time>
      </trkpt>
      <trkpt lat="44.60718" lon="-1.20341">
        <ele>-4.19</ele>
        <time>2021-07-01T20:08:56Z</time>
      </trkpt>
      <trkpt lat="44.60712" lon="-1.20334">
        <ele>-4.19</ele>
        <time>2021-07-01T20:08:57Z</time>
      </trkpt>
      <trkpt lat="44.60703" lon="-1.20329">
        <ele>-4.67</ele>
        <time>2021-07-01T20:08:58Z</time>
      </trkpt>
      <trkpt lat="44.6065" lon="-1.203">
        <ele>-7.07</ele>
        <time>2021-07-01T20:09:04Z</time>
      </trkpt>
      <trkpt lat="44.60642" lon="-1.20293">
        <ele>-7.07</ele>
        <time>2021-07-01T20:09:05Z</time>
      </trkpt>
      <trkpt lat="44.60634" lon="-1.20287">
        <ele>-7.55</ele>
        <time>2021-07-01T20:09:06Z</time>
      </trkpt>
      <trkpt lat="44.60619" lon="-1.20272">
        <ele>-8.03</ele>
        <time>2021-07-01T20:09:07Z</time>
      </trkpt>
      <trkpt lat="44.60613" lon="-1.20262">
        <ele>-8.51</ele>
        <time>2021-07-01T20:09:08Z</time>
      </trkpt>
      <trkpt lat="44.60613" lon="-1.20262">
        <ele>-8.03</ele>
        <time>2021-07-01T20:09:09Z</time>
      </trkpt>
      <trkpt lat="44.60607" lon="-1.20252">
        <ele>-7.55</ele>
        <time>2021-07-01T20:09:10Z</time>
      </trkpt>
      <trkpt lat="44.60601" lon="-1.2024">
        <ele>-7.07</ele>
        <time>2021-07-01T20:09:11Z</time>
      </trkpt>
      <trkpt lat="44.60596" lon="-1.20226">
        <ele>-7.07</ele>
        <time>2021-07-01T20:09:12Z</time>
      </trkpt>
      <trkpt lat="44.6053" lon="-1.20044">
        <ele>-1.79</ele>
        <time>2021-07-01T20:09:26Z</time>
      </trkpt>
      <trkpt lat="44.60456" lon="-1.19879">
        <ele>0.14</ele>
        <time>2021-07-01T20:09:40Z</time>
      </trkpt>
      <trkpt lat="44.60448" lon="-1.1987">
        <ele>-0.34</ele>
        <time>2021-07-01T20:09:41Z</time>
      </trkpt>
      <trkpt lat="44.60438" lon="-1.19863">
        <ele>-0.34</ele>
        <time>2021-07-01T20:09:42Z</time>
      </trkpt>
      <trkpt lat="44.60428" lon="-1.19858">
        <ele>-1.3</ele>
        <time>2021-07-01T20:09:43Z</time>
      </trkpt>
      <trkpt lat="44.60417" lon="-1.19852">
        <ele>-1.3</ele>
        <time>2021-07-01T20:09:44Z</time>
      </trkpt>
      <trkpt lat="44.60405" lon="-1.19849">
        <ele>-1.3</ele>
        <time>2021-07-01T20:09:45Z</time>
      </trkpt>
      <trkpt lat="44.60393" lon="-1.19848">
        <ele>-1.79</ele>
        <time>2021-07-01T20:09:46Z</time>
      </trkpt>
      <trkpt lat="44.60381" lon="-1.19846">
        <ele>-2.27</ele>
        <time>2021-07-01T20:09:47Z</time>
      </trkpt>
      <trkpt lat="44.60259" lon="-1.19842">
        <ele>0.62</ele>
        <time>2021-07-01T20:09:58Z</time>
      </trkpt>
      <trkpt lat="44.60192" lon="-1.19817">
        <ele>3.5</ele>
        <time>2021-07-01T20:10:07Z</time>
      </trkpt>
      <trkpt lat="44.60132" lon="-1.19794">
        <ele>3.98</ele>
        <time>2021-07-01T20:10:16Z</time>
      </trkpt>
      <trkpt lat="44.59959" lon="-1.19725">
        <ele>16</ele>
        <time>2021-07-01T20:10:32Z</time>
      </trkpt>
      <trkpt lat="44.5988" lon="-1.19697">
        <ele>21.77</ele>
        <time>2021-07-01T20:10:43Z</time>
      </trkpt>
      <trkpt lat="44.59868" lon="-1.19694">
        <ele>22.25</ele>
        <time>2021-07-01T20:10:46Z</time>
      </trkpt>
      <trkpt lat="44.59865" lon="-1.19693">
        <ele>22.25</ele>
        <time>2021-07-01T20:10:47Z</time>
      </trkpt>
      <trkpt lat="44.59857" lon="-1.19691">
        <ele>22.73</ele>
        <time>2021-07-01T20:10:48Z</time>
      </trkpt>
      <trkpt lat="44.59839" lon="-1.19706">
        <ele>23.69</ele>
        <time>2021-07-01T20:10:52Z</time>
      </trkpt>
      <trkpt lat="44.59835" lon="-1.19708">
        <ele>24.17</ele>
        <time>2021-07-01T20:10:53Z</time>
      </trkpt>
      <trkpt lat="44.5983" lon="-1.19716">
        <ele>24.65</ele>
        <time>2021-07-01T20:10:54Z</time>
      </trkpt>
      <trkpt lat="44.59828" lon="-1.19721">
        <ele>24.65</ele>
        <time>2021-07-01T20:10:55Z</time>
      </trkpt>
      <trkpt lat="44.59827" lon="-1.19727">
        <ele>24.17</ele>
        <time>2021-07-01T20:10:56Z</time>
      </trkpt>
      <trkpt lat="44.59826" lon="-1.19733">
        <ele>24.17</ele>
        <time>2021-07-01T20:10:57Z</time>
      </trkpt>
      <trkpt lat="44.59826" lon="-1.19738">
        <ele>24.17</ele>
        <time>2021-07-01T20:10:58Z</time>
      </trkpt>
      <trkpt lat="44.59825" lon="-1.19745">
        <ele>24.17</ele>
        <time>2021-07-01T20:10:59Z</time>
      </trkpt>
      <trkpt lat="44.59827" lon="-1.1975">
        <ele>23.69</ele>
        <time>2021-07-01T20:11:00Z</time>
      </trkpt>
      <trkpt lat="44.59832" lon="-1.19761">
        <ele>23.69</ele>
        <time>2021-07-01T20:11:01Z</time>
      </trkpt>
      <trkpt lat="44.59832" lon="-1.19761">
        <ele>23.69</ele>
        <time>2021-07-01T20:11:02Z</time>
      </trkpt>
      <trkpt lat="44.59839" lon="-1.19766">
        <ele>23.21</ele>
        <time>2021-07-01T20:11:03Z</time>
      </trkpt>
      <trkpt lat="44.59839" lon="-1.19766">
        <ele>22.73</ele>
        <time>2021-07-01T20:11:04Z</time>
      </trkpt>
      <trkpt lat="44.59846" lon="-1.19771">
        <ele>21.77</ele>
        <time>2021-07-01T20:11:06Z</time>
      </trkpt>
      <trkpt lat="44.59854" lon="-1.19775">
        <ele>20.81</ele>
        <time>2021-07-01T20:11:07Z</time>
      </trkpt>
      <trkpt lat="44.59857" lon="-1.19777">
        <ele>20.32</ele>
        <time>2021-07-01T20:11:08Z</time>
      </trkpt>
      <trkpt lat="44.59859" lon="-1.19779">
        <ele>20.32</ele>
        <time>2021-07-01T20:11:09Z</time>
      </trkpt>
    </trkseg>
  </trk>
</gpx>